Time;durP1;ratioP1;P1;durP2;ratioP2;P2;SDS_P1;SDS_P2;PMS_P1;PMS_P2;Temp;Humidity;BMP_temperature;BMP_pressure;BME280_temperature;BME280_humidity;BME280_pressure;Samples;Min_cycle;Max_cycle;Signal;HPM_P1;HPM_P2
2023/12/04 00:00:12;;;;;;;34.13;19.98;;;-3.80;1.00;;;;;;7381882;19;20006;-67
2023/12/04 00:02:42;;;;;;;31.77;19.58;;;-3.90;1.00;;;;;;7383383;19;20006;-68
2023/12/04 00:05:14;;;;;;;31.60;20.17;;;-3.90;1.00;;;;;;7379556;19;20010;-68
2023/12/04 00:07:44;;;;;;;32.63;19.80;;;-3.90;1.00;;;;;;7379386;19;20035;-68
2023/12/04 00:10:15;;;;;;;30.85;18.20;;;-3.90;1.00;;;;;;7383880;19;20013;-68
2023/12/04 00:12:45;;;;;;;32.58;19.40;;;-3.80;1.00;;;;;;7380557;19;20454;-68
2023/12/04 00:15:16;;;;;;;32.45;19.23;;;-3.70;1.00;;;;;;7383416;19;20007;-68
2023/12/04 00:17:45;;;;;;;29.35;18.23;;;-3.70;1.00;;;;;;7382398;19;20007;-67
2023/12/04 00:20:18;;;;;;;28.73;17.35;;;-3.70;1.00;;;;;;7380048;19;20069;-67
2023/12/04 00:22:48;;;;;;;29.20;18.85;;;-3.70;1.00;;;;;;7379775;19;20010;-68
2023/12/04 00:25:18;;;;;;;30.65;18.33;;;-3.70;1.00;;;;;;7384278;19;20085;-68
2023/12/04 00:27:48;;;;;;;29.45;16.67;;;-3.70;1.00;;;;;;7383919;19;20010;-67
2023/12/04 00:30:18;;;;;;;31.23;19.35;;;-3.70;1.00;;;;;;7376868;19;20082;-68
2023/12/04 00:32:48;;;;;;;29.13;17.55;;;-3.70;1.00;;;;;;7385324;19;20016;-67
2023/12/04 00:35:21;;;;;;;32.65;20.38;;;-3.70;1.00;;;;;;7376267;19;20443;-68
2023/12/04 00:37:51;;;;;;;29.83;17.38;;;-3.80;1.00;;;;;;7375442;19;20014;-69
2023/12/04 00:40:21;;;;;;;32.13;19.23;;;-3.70;1.00;;;;;;7381690;19;20067;-69
2023/12/04 00:42:51;;;;;;;30.75;18.70;;;-3.70;1.00;;;;;;7379639;19;20364;-67
2023/12/04 00:45:21;;;;;;;32.33;19.33;;;-3.70;1.00;;;;;;7380098;19;20014;-68
2023/12/04 00:47:51;;;;;;;31.90;19.77;;;-3.70;1.00;;;;;;7384106;19;20010;-68
2023/12/04 00:50:24;;;;;;;30.75;19.00;;;-3.70;1.00;;;;;;7381218;19;20010;-69
2023/12/04 00:52:54;;;;;;;32.92;19.67;;;-3.80;1.00;;;;;;7380704;19;20020;-69
2023/12/04 00:55:24;;;;;;;35.17;20.10;;;-3.70;1.00;;;;;;7379776;19;20375;-68
2023/12/04 00:57:54;;;;;;;31.80;19.92;;;-3.80;1.00;;;;;;7380563;19;20018;-67
2023/12/04 01:00:24;;;;;;;31.77;19.40;;;-3.80;1.00;;;;;;7380818;19;20042;-66
2023/12/04 01:02:54;;;;;;;34.22;19.48;;;-3.90;1.00;;;;;;7379854;19;20021;-67
2023/12/04 01:05:26;;;;;;;33.50;20.25;;;-3.90;1.00;;;;;;7379939;19;20109;-68
2023/12/04 01:07:56;;;;;;;32.40;19.92;;;-3.90;1.00;;;;;;7379346;19;20010;-67
2023/12/04 01:10:26;;;;;;;33.00;19.35;;;-3.80;1.00;;;;;;7379940;19;20010;-68
2023/12/04 01:12:56;;;;;;;31.48;20.23;;;-3.90;1.00;;;;;;7380669;19;20073;-68
2023/12/04 01:15:26;;;;;;;32.47;20.48;;;-4.00;1.00;;;;;;7379010;19;20009;-67
2023/12/04 01:17:56;;;;;;;35.67;21.02;;;-4.00;1.00;;;;;;7379912;19;20014;-67
2023/12/04 01:20:29;;;;;;;34.38;21.00;;;-3.90;1.00;;;;;;7379830;19;20010;-68
2023/12/04 01:22:59;;;;;;;36.70;22.52;;;-3.90;1.00;;;;;;7379316;19;20015;-68
2023/12/04 01:25:29;;;;;;;34.40;20.70;;;-3.90;1.00;;;;;;7376517;19;20011;-68
2023/12/04 01:27:59;;;;;;;37.08;21.02;;;-3.90;1.00;;;;;;7380006;19;20013;-68
2023/12/04 01:30:29;;;;;;;36.45;20.67;;;-3.90;1.00;;;;;;7379456;19;20041;-68
2023/12/04 01:32:59;;;;;;;36.67;22.63;;;-3.90;1.00;;;;;;7378802;19;20018;-68
2023/12/04 01:35:32;;;;;;;34.45;20.38;;;-3.90;1.00;;;;;;7377196;19;20570;-68
2023/12/04 01:38:02;;;;;;;36.42;20.20;;;-4.00;1.00;;;;;;7378467;19;20014;-68
2023/12/04 01:40:32;;;;;;;32.15;19.63;;;-4.00;1.00;;;;;;7378890;19;20010;-68
2023/12/04 01:43:02;;;;;;;32.42;18.33;;;-4.00;1.00;;;;;;7379224;19;20022;-68
2023/12/04 01:45:32;;;;;;;31.65;18.73;;;-4.00;1.00;;;;;;7377934;19;20054;-68
2023/12/04 01:48:02;;;;;;;35.20;21.20;;;-4.00;1.00;;;;;;7378371;19;20101;-68
2023/12/04 01:50:36;;;;;;;37.15;20.40;;;-3.90;1.00;;;;;;7379004;19;20007;-68
2023/12/04 01:53:06;;;;;;;34.27;21.43;;;-3.90;1.00;;;;;;7379578;19;20007;-68
2023/12/04 01:55:38;;;;;;;36.15;20.60;;;-3.80;1.00;;;;;;7377670;19;20007;-69
2023/12/04 01:58:09;;;;;;;36.00;20.52;;;-3.90;1.00;;;;;;7379097;19;20011;-69
2023/12/04 02:00:39;;;;;;;30.35;19.25;;;-4.00;1.00;;;;;;7379500;19;20064;-69
2023/12/04 02:03:10;;;;;;;33.22;20.10;;;-4.00;1.00;;;;;;7379233;19;20081;-69
2023/12/04 02:05:46;;;;;;;33.95;20.08;;;-4.00;1.00;;;;;;7378437;19;20037;-67
2023/12/04 02:08:16;;;;;;;34.20;19.75;;;-4.00;1.00;;;;;;7379581;19;20117;-68
2023/12/04 02:10:47;;;;;;;33.08;19.42;;;-3.90;1.00;;;;;;7377982;19;20467;-67
2023/12/04 02:13:17;;;;;;;32.08;20.10;;;-4.00;1.00;;;;;;7375392;19;20010;-67
2023/12/04 02:15:49;;;;;;;31.15;19.60;;;-4.00;1.00;;;;;;7376773;19;20021;-67
2023/12/04 02:18:20;;;;;;;35.83;21.38;;;-3.90;1.00;;;;;;7377905;19;20006;-67
2023/12/04 02:20:52;;;;;;;30.88;19.55;;;-3.90;1.00;;;;;;7378117;19;20011;-67
2023/12/04 02:23:22;;;;;;;32.85;18.85;;;-3.90;1.00;;;;;;7378148;19;20478;-67
2023/12/04 02:25:57;;;;;;;32.03;19.27;;;-3.90;1.00;;;;;;7376981;19;20014;-68
2023/12/04 02:28:31;;;;;;;32.10;18.98;;;-3.90;1.00;;;;;;7375180;19;20007;-69
2023/12/04 02:31:03;;;;;;;33.47;19.20;;;-3.80;1.00;;;;;;7377604;19;20010;-69
2023/12/04 02:33:35;;;;;;;31.85;18.13;;;-3.80;1.00;;;;;;7376891;19;20479;-67
2023/12/04 02:36:08;;;;;;;33.15;18.98;;;-3.80;1.00;;;;;;7375523;19;20014;-67
2023/12/04 02:38:38;;;;;;;36.38;19.77;;;-3.90;1.00;;;;;;7375255;19;20025;-67
2023/12/04 02:41:11;;;;;;;31.45;18.60;;;-4.00;1.00;;;;;;7375105;19;20037;-68
2023/12/04 02:43:41;;;;;;;33.40;20.27;;;-3.90;1.00;;;;;;7375789;19;20010;-68
2023/12/04 02:46:11;;;;;;;33.38;18.95;;;-3.90;1.00;;;;;;7376366;19;20336;-68
2023/12/04 02:48:41;;;;;;;32.75;20.50;;;-3.90;1.00;;;;;;7376610;19;20345;-68
2023/12/04 02:51:11;;;;;;;32.38;19.60;;;-3.90;1.00;;;;;;7376141;19;20017;-68
2023/12/04 02:53:41;;;;;;;35.03;20.65;;;-3.90;1.00;;;;;;7374895;19;20123;-68
2023/12/04 02:56:14;;;;;;;31.40;19.05;;;-3.80;1.00;;;;;;7374649;19;20011;-68
2023/12/04 02:58:44;;;;;;;33.30;19.27;;;-3.90;1.00;;;;;;7377124;19;20018;-68
2023/12/04 03:01:14;;;;;;;33.50;16.50;;;-3.90;1.00;;;;;;7388944;19;20460;-68
2023/12/04 03:03:44;;;;;;;31.83;18.15;;;-3.90;1.00;;;;;;7390432;19;20499;-68
2023/12/04 03:06:15;;;;;;;32.88;19.83;;;-4.00;1.00;;;;;;7390472;19;20074;-67
2023/12/04 03:08:45;;;;;;;37.28;20.88;;;-4.00;1.00;;;;;;7388149;19;20356;-67
2023/12/04 03:11:18;;;;;;;34.05;19.60;;;-4.00;1.00;;;;;;7389393;19;20012;-68
2023/12/04 03:13:48;;;;;;;33.75;18.85;;;-4.00;1.00;;;;;;7389656;19;20018;-68
2023/12/04 03:16:18;;;;;;;28.67;17.52;;;-4.00;1.00;;;;;;7388306;19;20480;-69
2023/12/04 03:18:48;;;;;;;27.95;17.35;;;-4.00;1.00;;;;;;7389603;19;20006;-68
2023/12/04 03:21:19;;;;;;;29.67;17.52;;;-4.00;1.00;;;;;;7389032;19;20567;-68
2023/12/04 03:23:48;;;;;;;30.05;18.48;;;-3.90;1.00;;;;;;7388111;19;20006;-68
2023/12/04 03:26:21;;;;;;;26.35;15.52;;;-3.90;1.00;;;;;;7388288;19;20010;-68
2023/12/04 03:28:52;;;;;;;28.13;17.13;;;-3.80;1.00;;;;;;7388430;19;20499;-68
2023/12/04 03:31:22;;;;;;;30.45;17.70;;;-3.90;1.00;;;;;;7387878;19;20007;-68
2023/12/04 03:33:52;;;;;;;27.92;17.60;;;-3.80;1.00;;;;;;7388737;19;20010;-68
2023/12/04 03:36:22;;;;;;;35.53;19.42;;;-3.80;1.00;;;;;;7389182;19;20022;-68
2023/12/04 03:38:52;;;;;;;30.48;17.55;;;-3.90;1.00;;;;;;7388221;19;20002;-69
2023/12/04 03:41:25;;;;;;;36.35;20.90;;;-3.90;1.00;;;;;;7388834;19;19998;-68
2023/12/04 03:43:55;;;;;;;29.33;18.00;;;-3.80;1.00;;;;;;7389913;19;20007;-69
2023/12/04 03:46:25;;;;;;;31.58;18.40;;;-3.90;1.00;;;;;;7387650;19;20471;-68
2023/12/04 03:48:58;;;;;;;29.13;18.17;;;-3.90;1.00;;;;;;7388132;19;20117;-68
2023/12/04 03:51:28;;;;;;;30.25;18.08;;;-3.80;1.00;;;;;;7389768;19;20071;-68
2023/12/04 03:53:59;;;;;;;31.08;18.77;;;-3.80;1.00;;;;;;7389302;19;20018;-67
2023/12/04 03:56:31;;;;;;;29.95;17.92;;;-3.80;1.00;;;;;;7388262;19;20011;-68
2023/12/04 03:59:01;;;;;;;32.92;18.92;;;-3.80;1.00;;;;;;7383667;19;20071;-68
2023/12/04 04:01:31;;;;;;;31.25;18.35;;;-3.80;1.00;;;;;;7388324;19;20007;-68
2023/12/04 04:04:01;;;;;;;32.85;18.40;;;-3.80;1.00;;;;;;7389434;19;20463;-67
2023/12/04 04:06:31;;;;;;;29.73;18.15;;;-3.80;1.00;;;;;;7388215;19;20010;-67
2023/12/04 04:09:01;;;;;;;32.15;17.80;;;-3.80;1.00;;;;;;7388873;19;20455;-66
2023/12/04 04:11:34;;;;;;;29.52;17.27;;;-3.80;1.00;;;;;;7380234;19;20006;-68
2023/12/04 04:14:04;;;;;;;28.17;17.00;;;-3.80;1.00;;;;;;7380888;19;20019;-67
2023/12/04 04:16:34;;;;;;;28.67;18.45;;;-3.80;1.00;;;;;;7380163;19;20021;-67
2023/12/04 04:19:05;;;;;;;29.65;15.68;;;-3.80;1.00;;;;;;7382452;19;20070;-66
2023/12/04 04:21:35;;;;;;;27.55;17.67;;;-3.80;1.00;;;;;;7381359;19;20019;-67
2023/12/04 04:24:05;;;;;;;28.75;18.40;;;-3.70;1.00;;;;;;7379053;19;20010;-67
2023/12/04 04:26:38;;;;;;;31.17;17.40;;;-3.70;1.00;;;;;;7380887;19;20044;-67
2023/12/04 04:29:08;;;;;;;32.13;17.35;;;-3.70;1.00;;;;;;7380113;19;20351;-67
2023/12/04 04:31:38;;;;;;;27.00;16.30;;;-3.70;1.00;;;;;;7378171;19;20010;-68
2023/12/04 04:34:08;;;;;;;27.48;17.70;;;-3.80;1.00;;;;;;7380103;19;20011;-67
2023/12/04 04:36:38;;;;;;;26.40;15.98;;;-3.80;1.00;;;;;;7380088;19;20014;-67
2023/12/04 04:39:10;;;;;;;25.80;16.40;;;-3.60;1.00;;;;;;7378530;19;20017;-68
2023/12/04 04:41:43;;;;;;;29.27;16.83;;;-3.60;1.00;;;;;;7380137;19;20007;-67
2023/12/04 04:44:13;;;;;;;27.55;16.23;;;-3.50;1.00;;;;;;7380270;19;20013;-67
2023/12/04 04:46:43;;;;;;;31.98;18.67;;;-3.60;1.00;;;;;;7379596;19;20485;-67
2023/12/04 04:49:13;;;;;;;28.10;17.67;;;-3.60;1.00;;;;;;7380351;19;20007;-67
2023/12/04 04:51:43;;;;;;;26.60;16.23;;;-3.50;1.00;;;;;;7379612;19;20359;-67
2023/12/04 04:54:13;;;;;;;28.17;16.83;;;-3.60;1.00;;;;;;7379079;19;20472;-67
2023/12/04 04:56:46;;;;;;;30.77;17.23;;;-3.50;1.00;;;;;;7379250;19;20015;-67
2023/12/04 04:59:16;;;;;;;24.98;16.08;;;-3.40;1.00;;;;;;7379353;19;20011;-67
2023/12/04 05:01:46;;;;;;;24.70;16.17;;;-3.50;1.00;;;;;;7377790;19;20007;-67
2023/12/04 05:04:16;;;;;;;25.20;16.38;;;-3.50;1.00;;;;;;7378796;19;20014;-67
2023/12/04 05:06:46;;;;;;;29.15;16.85;;;-3.40;1.00;;;;;;7379587;19;20927;-67
2023/12/04 05:09:16;;;;;;;25.48;16.23;;;-3.40;1.00;;;;;;7380001;19;20030;-67
2023/12/04 05:11:49;;;;;;;24.70;15.02;;;-3.40;1.00;;;;;;7379913;19;20111;-67
2023/12/04 05:14:19;;;;;;;25.27;15.80;;;-3.50;1.00;;;;;;7378826;19;20363;-66
2023/12/04 05:16:48;;;;;;;26.75;16.67;;;-3.50;1.00;;;;;;7378726;19;20010;-67
2023/12/04 05:19:18;;;;;;;26.48;16.90;;;-3.50;1.00;;;;;;7379197;19;20034;-67
2023/12/04 05:21:49;;;;;;;29.98;17.52;;;-3.50;1.00;;;;;;7380722;19;20011;-68
2023/12/04 05:24:19;;;;;;;25.88;16.45;;;-3.50;1.00;;;;;;7380159;19;20039;-67
2023/12/04 05:26:51;;;;;;;29.27;16.88;;;-3.40;1.00;;;;;;7377817;19;20011;-67
2023/12/04 05:29:21;;;;;;;27.58;16.45;;;-3.50;1.00;;;;;;7377071;19;20017;-67
2023/12/04 05:31:51;;;;;;;27.52;16.65;;;-3.50;1.00;;;;;;7378992;19;20010;-68
2023/12/04 05:34:21;;;;;;;26.40;16.27;;;-3.40;1.00;;;;;;7376317;19;20014;-68
2023/12/04 05:36:51;;;;;;;26.58;16.85;;;-3.50;1.00;;;;;;7378696;19;20014;-68
2023/12/04 05:39:21;;;;;;;25.30;15.13;;;-3.60;1.00;;;;;;7378136;19;20011;-67
2023/12/04 05:41:54;;;;;;;28.15;15.85;;;-3.70;1.00;;;;;;7379534;19;20435;-66
2023/12/04 05:44:24;;;;;;;23.67;15.85;;;-3.60;1.00;;;;;;7376577;19;20011;-69
2023/12/04 05:46:54;;;;;;;21.58;14.73;;;-3.60;1.00;;;;;;7376471;19;20335;-66
2023/12/04 05:49:24;;;;;;;23.52;14.98;;;-3.60;1.00;;;;;;7377756;19;20014;-68
2023/12/04 05:51:54;;;;;;;25.58;15.57;;;-3.60;1.00;;;;;;7378160;19;20011;-67
2023/12/04 05:54:24;;;;;;;23.25;14.27;;;-3.70;1.00;;;;;;7377102;19;20006;-66
2023/12/04 05:56:57;;;;;;;23.20;14.23;;;-3.60;1.00;;;;;;7376445;19;20033;-68
2023/12/04 05:59:27;;;;;;;20.80;13.20;;;-3.60;1.00;;;;;;7377540;19;20018;-67
2023/12/04 06:01:57;;;;;;;21.48;13.32;;;-3.60;1.00;;;;;;7378126;19;20006;-66
2023/12/04 06:04:27;;;;;;;21.20;12.73;;;-3.50;1.00;;;;;;7376828;19;20006;-69
2023/12/04 06:06:57;;;;;;;20.35;13.40;;;-3.60;1.00;;;;;;7376483;19;20029;-68
2023/12/04 06:09:27;;;;;;;19.50;12.32;;;-3.50;1.00;;;;;;7376161;19;20015;-68
2023/12/04 06:12:04;;;;;;;18.90;12.32;;;-3.60;1.00;;;;;;7376347;19;20483;-68
2023/12/04 06:14:34;;;;;;;19.08;11.93;;;-3.50;1.00;;;;;;7376148;19;20390;-67
2023/12/04 06:17:05;;;;;;;15.75;10.52;;;-3.50;1.00;;;;;;7378052;19;20014;-67
2023/12/04 06:19:35;;;;;;;18.33;11.82;;;-3.40;1.00;;;;;;7377295;19;20362;-68
2023/12/04 06:22:06;;;;;;;17.38;11.18;;;-3.40;1.00;;;;;;7377140;19;20046;-66
2023/12/04 06:24:36;;;;;;;18.20;10.98;;;-3.40;1.00;;;;;;7376401;19;20023;-66
2023/12/04 06:27:12;;;;;;;21.95;11.05;;;-3.40;1.00;;;;;;7377016;19;20009;-68
2023/12/04 06:29:43;;;;;;;17.55;11.57;;;-3.40;1.00;;;;;;7378820;19;20010;-69
2023/12/04 06:32:15;;;;;;;19.77;12.27;;;-3.40;1.00;;;;;;7376547;19;20010;-66
2023/12/04 06:34:45;;;;;;;17.90;11.02;;;-3.40;1.00;;;;;;7372762;19;20033;-67
2023/12/04 06:37:16;;;;;;;17.67;11.30;;;-3.50;1.00;;;;;;7377360;19;20007;-67
2023/12/04 06:39:50;;;;;;;21.20;12.02;;;-3.50;1.00;;;;;;7376676;19;20006;-66
2023/12/04 06:42:24;;;;;;;19.80;12.38;;;-3.40;1.00;;;;;;7376428;19;20044;-68
2023/12/04 06:44:54;;;;;;;21.85;13.35;;;-3.40;1.00;;;;;;7376881;19;20039;-68
2023/12/04 06:47:26;;;;;;;20.38;12.82;;;-3.40;1.00;;;;;;7375787;19;20395;-68
2023/12/04 06:49:56;;;;;;;21.48;13.43;;;-3.40;1.00;;;;;;7377449;19;20054;-68
2023/12/04 06:52:26;;;;;;;21.83;12.65;;;-3.30;1.00;;;;;;7375607;19;20018;-68
2023/12/04 06:54:56;;;;;;;22.42;13.18;;;-3.30;1.00;;;;;;7375120;19;20389;-67
2023/12/04 06:57:28;;;;;;;19.38;13.27;;;-3.20;1.00;;;;;;7375411;19;20009;-67
2023/12/04 06:59:58;;;;;;;20.90;13.18;;;-3.10;1.00;;;;;;7374804;19;20772;-67
2023/12/04 07:02:28;;;;;;;21.38;12.63;;;-3.20;1.00;;;;;;7375279;19;20471;-67
2023/12/04 07:04:58;;;;;;;20.42;12.75;;;-3.20;1.00;;;;;;7376678;19;20015;-67
2023/12/04 07:07:28;;;;;;;19.27;12.27;;;-3.20;1.00;;;;;;7375832;19;20006;-67
2023/12/04 07:09:58;;;;;;;20.45;12.80;;;-3.20;1.00;;;;;;7376485;19;20021;-67
2023/12/04 07:12:31;;;;;;;21.52;12.85;;;-3.10;1.00;;;;;;7376062;19;20784;-66
2023/12/04 07:15:01;;;;;;;17.48;12.57;;;-3.10;1.00;;;;;;7376066;19;20029;-67
2023/12/04 07:17:31;;;;;;;18.48;12.45;;;-3.10;1.00;;;;;;7371062;19;20018;-68
2023/12/04 07:20:02;;;;;;;17.75;12.40;;;-3.10;1.00;;;;;;7372984;19;20019;-67
2023/12/04 07:22:32;;;;;;;21.63;12.88;;;-3.00;1.00;;;;;;7374242;19;20099;-68
2023/12/04 07:25:09;;;;;;;20.02;12.18;;;-2.90;1.00;;;;;;7370626;19;20403;-67
2023/12/04 07:27:42;;;;;;;18.80;11.98;;;-2.90;1.00;;;;;;7371363;19;20158;-66
2023/12/04 07:30:13;;;;;;;21.80;12.75;;;-2.80;1.00;;;;;;7373821;19;20039;-69
2023/12/04 07:32:48;;;;;;;19.52;12.50;;;-2.70;1.00;;;;;;7368868;19;20014;-68
2023/12/04 07:35:19;;;;;;;19.38;12.27;;;-2.50;1.00;;;;;;7375273;19;20015;-68
2023/12/04 07:37:49;;;;;;;19.58;12.10;;;-2.50;1.00;;;;;;7373466;19;20021;-67
2023/12/04 07:40:22;;;;;;;20.08;11.68;;;-2.50;1.00;;;;;;7376897;19;20011;-68
2023/12/04 07:42:58;;;;;;;17.58;10.70;;;-2.60;1.00;;;;;;7375202;19;20006;-67
2023/12/04 07:45:28;;;;;;;15.73;10.18;;;-2.60;1.00;;;;;;7375584;19;20021;-68
2023/12/04 07:47:59;;;;;;;16.00;10.70;;;-2.60;1.00;;;;;;7380435;19;20081;-67
2023/12/04 07:50:29;;;;;;;14.38;9.77;;;-2.60;1.00;;;;;;7380977;19;20014;-66
2023/12/04 07:52:59;;;;;;;16.15;10.95;;;-2.50;1.00;;;;;;7380182;19;20011;-67
2023/12/04 07:55:29;;;;;;;18.45;10.68;;;-2.40;1.00;;;;;;7379827;19;20019;-67
2023/12/04 07:58:01;;;;;;;15.48;10.23;;;-2.50;1.00;;;;;;7380598;19;20029;-67
2023/12/04 08:00:31;;;;;;;17.48;10.13;;;-2.50;1.00;;;;;;7379527;19;20459;-68
2023/12/04 08:03:02;;;;;;;14.50;9.68;;;-2.30;1.00;;;;;;7379316;19;20014;-67
2023/12/04 08:05:33;;;;;;;14.23;9.65;;;-2.30;1.00;;;;;;7379315;19;20010;-67
2023/12/04 08:08:03;;;;;;;14.77;9.45;;;-2.40;1.00;;;;;;7380198;19;20015;-67
2023/12/04 08:10:33;;;;;;;15.00;9.38;;;-2.30;1.00;;;;;;7381589;19;20025;-67
2023/12/04 08:13:05;;;;;;;17.90;10.63;;;-2.40;1.00;;;;;;7379612;19;20018;-67
2023/12/04 08:15:35;;;;;;;19.17;10.45;;;-2.20;1.00;;;;;;7379807;19;20006;-68
2023/12/04 08:18:05;;;;;;;21.55;10.85;;;-2.30;1.00;;;;;;7380545;19;20006;-67
2023/12/04 08:20:36;;;;;;;15.00;9.63;;;-2.10;1.00;;;;;;7380748;19;20014;-67
2023/12/04 08:23:10;;;;;;;17.98;10.93;;;-2.00;1.00;;;;;;7379978;19;20013;-67
2023/12/04 08:25:40;;;;;;;18.95;10.07;;;-2.20;1.00;;;;;;7378224;19;20039;-68
2023/12/04 08:28:12;;;;;;;17.40;10.10;;;-2.20;1.00;;;;;;7378902;19;20015;-68
2023/12/04 08:30:42;;;;;;;17.25;10.70;;;-2.30;1.00;;;;;;7379962;19;20003;-67
2023/12/04 08:33:12;;;;;;;19.23;11.25;;;-2.10;1.00;;;;;;7379718;19;20505;-68
2023/12/04 08:35:43;;;;;;;17.65;10.65;;;-2.20;1.00;;;;;;7379662;19;20006;-68
2023/12/04 08:38:13;;;;;;;17.13;10.57;;;-2.20;1.00;;;;;;7380351;19;20021;-66
2023/12/04 08:40:44;;;;;;;19.38;11.40;;;-2.00;1.00;;;;;;7380455;19;20024;-67
2023/12/04 08:43:16;;;;;;;19.20;11.75;;;-1.90;1.00;;;;;;7379659;19;20494;-66
2023/12/04 08:45:46;;;;;;;19.35;10.90;;;-2.00;1.00;;;;;;7380120;19;20021;-67
2023/12/04 08:48:16;;;;;;;18.40;12.00;;;-2.00;1.00;;;;;;7379524;19;20510;-67
2023/12/04 08:50:46;;;;;;;18.73;12.00;;;-2.10;1.00;;;;;;7381254;19;20401;-67
2023/12/04 08:53:17;;;;;;;22.92;13.20;;;-2.00;1.00;;;;;;7379969;19;20522;-67
2023/12/04 08:55:47;;;;;;;20.63;12.63;;;-1.90;1.00;;;;;;7379061;19;20014;-67
2023/12/04 08:58:20;;;;;;;19.88;12.75;;;-2.00;1.00;;;;;;7379430;19;20074;-66
2023/12/04 09:00:50;;;;;;;22.08;13.07;;;-1.90;1.00;;;;;;7378742;19;20408;-67
2023/12/04 09:03:22;;;;;;;22.17;13.40;;;-1.90;1.00;;;;;;7380048;19;20467;-66
2023/12/04 09:06:01;;;;;;;20.23;13.05;;;-1.70;1.00;;;;;;7378366;19;20399;-67
2023/12/04 09:08:32;;;;;;;21.00;13.65;;;-1.70;1.00;;;;;;7379765;19;20010;-68
2023/12/04 09:11:10;;;;;;;40.63;23.67;;;-1.80;1.00;;;;;;7380028;19;20099;-67
2023/12/04 09:13:55;;;;;;;22.30;13.70;;;-1.70;1.00;;;;;;7378782;19;20050;-68
2023/12/04 09:16:26;;;;;;;22.38;13.20;;;-1.90;1.00;;;;;;7377527;19;20014;-66
2023/12/04 09:18:56;;;;;;;24.63;12.65;;;-1.90;1.00;;;;;;7380184;19;20035;-66
2023/12/04 09:21:26;;;;;;;22.40;13.95;;;-1.90;1.00;;;;;;7380001;19;20003;-66
2023/12/04 09:23:57;;;;;;;38.17;15.07;;;-1.80;1.00;;;;;;7378723;19;20015;-68
2023/12/04 09:26:27;;;;;;;21.75;13.00;;;-1.80;1.00;;;;;;7379231;19;20011;-68
2023/12/04 09:28:59;;;;;;;24.38;13.77;;;-1.80;1.00;;;;;;7380165;19;20017;-67
2023/12/04 09:31:29;;;;;;;23.10;13.45;;;-1.80;1.00;;;;;;7378798;19;20022;-67
2023/12/04 09:34:01;;;;;;;27.55;14.80;;;-1.70;1.00;;;;;;7377420;19;20068;-67
2023/12/04 09:36:31;;;;;;;27.23;14.00;;;-1.70;1.00;;;;;;7379411;19;20028;-67
2023/12/04 09:39:03;;;;;;;27.10;13.63;;;-1.80;1.00;;;;;;7379277;19;20419;-66
2023/12/04 09:41:34;;;;;;;25.10;14.18;;;-1.80;1.00;;;;;;7379363;19;20508;-66
2023/12/04 09:44:10;;;;;;;23.50;13.90;;;-1.70;1.00;;;;;;7378649;19;20018;-67
2023/12/04 09:46:41;;;;;;;36.15;16.80;;;-1.60;1.00;;;;;;7378606;19;20014;-67
2023/12/04 09:49:11;;;;;;;24.75;13.02;;;-1.40;1.00;;;;;;7377767;19;20014;-67
2023/12/04 09:51:41;;;;;;;21.42;13.10;;;-1.30;1.00;;;;;;7379390;19;20010;-67
2023/12/04 09:54:12;;;;;;;24.15;14.05;;;-1.40;1.00;;;;;;7377885;19;20010;-67
2023/12/04 09:56:42;;;;;;;19.88;13.25;;;-1.30;1.00;;;;;;7377264;19;20014;-67
2023/12/04 09:59:17;;;;;;;25.35;13.73;;;-1.20;1.00;;;;;;7381723;19;20014;-67
2023/12/04 10:01:49;;;;;;;21.83;12.20;;;-1.40;1.00;;;;;;7377912;19;20015;-66
2023/12/04 10:04:21;;;;;;;23.40;13.68;;;-1.40;1.00;;;;;;7377601;19;20021;-67
2023/12/04 10:06:53;;;;;;;28.65;14.32;;;-1.50;1.00;;;;;;7376856;19;20463;-67
2023/12/04 10:09:24;;;;;;;22.90;14.13;;;-1.40;1.00;;;;;;7375169;19;20036;-67
2023/12/04 10:11:55;;;;;;;26.27;13.90;;;-1.40;1.00;;;;;;7376588;19;20369;-68
2023/12/04 10:14:28;;;;;;;30.17;15.13;;;-1.40;1.00;;;;;;7374663;19;20451;-69
2023/12/04 10:16:59;;;;;;;21.42;13.57;;;-1.40;1.00;;;;;;7376782;19;20050;-67
2023/12/04 10:19:32;;;;;;;25.35;13.63;;;-1.40;1.00;;;;;;7373725;19;20013;-68
2023/12/04 10:22:03;;;;;;;24.52;13.35;;;-1.30;1.00;;;;;;7376050;19;20082;-68
2023/12/04 10:24:35;;;;;;;24.17;13.40;;;-1.50;1.00;;;;;;7376728;19;20019;-68
2023/12/04 10:27:08;;;;;;;30.05;13.73;;;-1.20;1.00;;;;;;7375936;19;20015;-67
2023/12/04 10:29:49;;;;;;;24.17;13.05;;;-1.10;1.00;;;;;;7375985;19;20021;-67
2023/12/04 10:32:21;;;;;;;23.02;12.05;;;-1.10;1.00;;;;;;7375821;19;20010;-67
2023/12/04 10:34:52;;;;;;;25.33;12.63;;;-0.80;1.00;;;;;;7377583;19;20015;-68
2023/12/04 10:37:24;;;;;;;29.58;15.20;;;-0.80;1.00;;;;;;7376925;19;20479;-67
2023/12/04 10:39:55;;;;;;;26.10;14.13;;;-0.80;1.00;;;;;;7372274;19;20019;-68
2023/12/04 10:42:30;;;;;;;25.88;12.27;;;-0.70;1.00;;;;;;7376005;19;20011;-67
2023/12/04 10:45:06;;;;;;;19.88;12.00;;;-0.80;1.00;;;;;;7375452;19;20043;-68
2023/12/04 10:47:38;;;;;;;19.80;12.80;;;-0.80;1.00;;;;;;7375269;19;20013;-68
2023/12/04 10:50:09;;;;;;;19.75;11.57;;;-0.70;1.00;;;;;;7376284;19;20010;-68
2023/12/04 10:52:41;;;;;;;26.60;13.65;;;-0.70;1.00;;;;;;7376419;19;20086;-67
2023/12/04 10:55:13;;;;;;;23.75;14.20;;;-0.80;1.00;;;;;;7376063;19;20032;-67
2023/12/04 10:57:46;;;;;;;30.25;13.55;;;-0.80;1.00;;;;;;7375599;19;20019;-67
2023/12/04 11:00:21;;;;;;;32.20;14.27;;;-0.80;1.00;;;;;;7377486;19;20337;-68
2023/12/04 11:02:57;;;;;;;20.20;12.90;;;-0.90;1.00;;;;;;7377135;19;20078;-67
2023/12/04 11:05:28;;;;;;;20.23;12.95;;;-0.80;1.00;;;;;;7372350;19;20070;-67
2023/12/04 11:07:59;;;;;;;20.90;12.88;;;-0.80;1.00;;;;;;7375778;19;20022;-67
2023/12/04 11:10:55;;;;;;;21.38;13.02;;;-0.70;1.00;;;;;;7376566;19;20428;-68
2023/12/04 11:13:29;;;;;;;20.00;12.60;;;-0.70;1.00;;;;;;7374761;19;20009;-67
2023/12/04 11:16:04;;;;;;;20.95;11.98;;;-0.50;1.00;;;;;;7374567;19;20018;-68
2023/12/04 11:18:39;;;;;;;18.13;12.52;;;-0.60;1.00;;;;;;7375599;19;20018;-68
2023/12/04 11:21:12;;;;;;;35.13;13.90;;;-0.40;1.00;;;;;;7379848;19;20026;-67
2023/12/04 11:23:42;;;;;;;19.23;11.88;;;-0.40;1.00;;;;;;7381612;19;20018;-69
2023/12/04 11:26:14;;;;;;;20.95;11.90;;;-0.40;1.00;;;;;;7380795;19;20471;-67
2023/12/04 11:28:46;;;;;;;17.63;11.32;;;-0.40;1.00;;;;;;7381378;19;20048;-67
2023/12/04 11:31:20;;;;;;;19.10;11.95;;;-0.30;1.00;;;;;;7382687;19;20416;-67
2023/12/04 11:33:50;;;;;;;19.15;11.80;;;-0.20;1.00;;;;;;7382098;19;20003;-68
2023/12/04 11:36:20;;;;;;;17.77;11.18;;;-0.20;1.00;;;;;;7381796;19;20028;-68
2023/12/04 11:38:51;;;;;;;14.52;10.25;;;-0.20;1.00;;;;;;7383627;19;20081;-68
2023/12/04 11:41:22;;;;;;;16.65;11.23;;;-0.20;1.00;;;;;;7382925;19;20403;-67
2023/12/04 11:43:57;;;;;;;;;;;-0.20;1.00;;;;;;7381087;19;20814;-68
2023/12/04 11:46:32;;;;;;;19.35;11.20;;;0.00;1.00;;;;;;7380919;19;19923;-69
2023/12/04 11:49:37;;;;;;;19.77;11.80;;;0.00;1.00;;;;;;7380209;19;20094;-68
2023/12/04 11:52:09;;;;;;;16.85;10.35;;;0.00;1.00;;;;;;6870906;19;2003845;-67
2023/12/04 11:54:59;;;;;;;20.08;11.93;;;0.00;1.00;;;;;;7380924;19;20018;-68
2023/12/04 11:57:31;;;;;;;21.05;11.57;;;0.10;1.00;;;;;;7378687;19;20078;-70
2023/12/04 12:00:14;;;;;;;16.30;11.00;;;0.20;1.00;;;;;;7379565;19;20021;-67
2023/12/04 12:02:51;;;;;;;17.23;10.27;;;0.00;1.00;;;;;;7381491;19;20014;-67
2023/12/04 12:05:41;;;;;;;17.67;11.40;;;0.00;1.00;;;;;;6869918;19;2003919;-69
2023/12/04 12:08:12;;;;;;;20.15;12.27;;;0.00;1.00;;;;;;7385916;19;20015;-67
2023/12/04 12:10:43;;;;;;;23.27;13.07;;;0.00;1.00;;;;;;7385953;19;20011;-67
2023/12/04 12:13:14;;;;;;;18.85;11.43;;;-0.10;1.00;;;;;;7380097;19;20018;-67
2023/12/04 12:15:50;;;;;;;17.48;11.20;;;-0.20;1.00;;;;;;7378975;19;20775;-68
2023/12/04 12:18:25;;;;;;;18.75;11.85;;;-0.20;1.00;;;;;;7381535;19;20549;-68
2023/12/04 12:20:58;;;;;;;16.75;11.02;;;-0.20;1.00;;;;;;7378826;19;20078;-68
2023/12/04 12:23:29;;;;;;;16.77;11.15;;;-0.30;1.00;;;;;;7375663;19;20006;-69
2023/12/04 12:26:00;;;;;;;17.70;11.27;;;-0.30;1.00;;;;;;7380748;19;20491;-67
2023/12/04 12:28:33;;;;;;;18.30;11.70;;;-0.20;1.00;;;;;;7381302;19;20010;-67
2023/12/04 12:31:05;;;;;;;19.02;11.93;;;-0.30;1.00;;;;;;7378969;19;20119;-68
2023/12/04 12:33:38;;;;;;;23.08;12.25;;;-0.20;1.00;;;;;;7379295;19;20064;-68
2023/12/04 12:36:10;;;;;;;19.45;11.25;;;-0.20;1.00;;;;;;7379688;19;20499;-67
2023/12/04 12:38:41;;;;;;;20.52;11.65;;;-0.10;1.00;;;;;;7381094;19;20010;-71
2023/12/04 12:41:12;;;;;;;18.80;11.18;;;-0.10;1.00;;;;;;7381317;19;20017;-68
2023/12/04 12:43:42;;;;;;;20.08;11.57;;;-0.20;1.00;;;;;;7378979;19;20423;-68
2023/12/04 12:46:13;;;;;;;18.65;12.40;;;-0.20;1.00;;;;;;7380177;19;20018;-69
2023/12/04 12:48:46;;;;;;;18.98;11.60;;;-0.20;1.00;;;;;;7380868;19;20098;-68
2023/12/04 12:51:17;;;;;;;18.42;11.95;;;-0.10;1.00;;;;;;7376899;19;20456;-67
2023/12/04 12:53:47;;;;;;;20.30;13.30;;;-0.10;1.00;;;;;;7380009;19;20010;-67
2023/12/04 12:56:22;;;;;;;22.83;12.85;;;0.00;1.00;;;;;;7378523;19;20027;-67
2023/12/04 12:58:52;;;;;;;17.45;11.55;;;0.10;1.00;;;;;;7380568;19;20006;-67